Time;durP1;ratioP1;P1;durP2;ratioP2;P2;SDS_P1;SDS_P2;PMS_P1;PMS_P2;Temp;Humidity;BMP_temperature;BMP_pressure;BME280_temperature;BME280_humidity;BME280_pressure;Samples;Min_cycle;Max_cycle;Signal;HPM_P1;HPM_P2
2022/06/18 00:00:58;;;;;;;3.13;2.55;;;;;;;28.17;41.95;97247.19;5115924;28;20038;-27
2022/06/18 00:03:25;;;;;;;6.18;2.83;;;;;;;28.18;42.30;97245.94;5134158;27;20019;-27
2022/06/18 00:05:54;;;;;;;3.90;2.60;;;;;;;28.15;42.04;97240.63;5134263;27;20027;-27
2022/06/18 00:08:23;;;;;;;3.42;2.67;;;;;;;28.09;42.24;97249.03;5134328;27;20046;-28
2022/06/18 00:13:39;;;;;;;3.70;2.90;;;;;;;28.11;42.32;97246.47;5134171;27;20058;-27
2022/06/18 00:13:43;;;;;;;3.92;3.05;;;;;;;28.14;41.96;97242.66;5133886;27;20066;-27
2022/06/18 00:16:11;;;;;;;4.13;2.80;;;;;;;28.15;42.21;97243.41;5134175;27;20471;-27
2022/06/18 00:18:36;;;;;;;4.07;2.78;;;;;;;28.19;42.11;97233.47;5134086;27;20035;-29
2022/06/18 00:21:05;;;;;;;4.80;3.08;;;;;;;28.27;41.80;97232.91;5133991;27;20050;-27
2022/06/18 00:23:31;;;;;;;3.67;2.42;;;;;;;28.19;42.18;97233.47;5133927;27;20429;-28
2022/06/18 00:25:56;;;;;;;3.47;2.70;;;;;;;28.28;41.89;97232.38;5134091;27;20030;-27
2022/06/18 00:28:29;;;;;;;4.75;3.10;;;;;;;28.31;41.69;97227.78;5133864;27;20106;-27
2022/06/18 00:30:54;;;;;;;4.53;2.78;;;;;;;28.19;41.92;97225.09;5134166;27;20532;-29
2022/06/18 00:33:21;;;;;;;4.15;2.90;;;;;;;28.16;42.06;97225.41;5133913;27;20027;-27
2022/06/18 00:35:47;;;;;;;4.85;2.83;;;;;;;28.20;42.02;97223.06;5134012;27;20023;-27
2022/06/18 00:38:31;;;;;;;4.10;3.05;;;;;;;28.19;42.04;97222.31;5133965;27;20094;-27
2022/06/18 00:40:58;;;;;;;3.95;2.95;;;;;;;28.11;42.03;97220.63;5133984;27;20026;-27
2022/06/18 00:43:36;;;;;;;4.25;2.80;;;;;;;28.16;41.95;97228.19;5095441;28;20100;-27
2022/06/18 00:46:22;;;;;;;3.67;2.90;;;;;;;28.19;41.68;97227.91;5119014;28;20027;-27
2022/06/18 00:48:51;;;;;;;5.80;3.17;;;;;;;28.31;41.47;97227.78;5133916;28;20023;-27
2022/06/18 00:51:27;;;;;;;4.43;2.95;;;;;;;28.23;41.58;97227.59;5133880;28;20023;-28
2022/06/18 00:54:07;;;;;;;4.13;2.80;;;;;;;28.16;41.71;97219.81;5134134;28;20028;-27
2022/06/18 00:56:44;;;;;;;4.97;2.90;;;;;;;28.21;41.51;97222.56;5133708;28;20098;-27
2022/06/18 00:59:31;;;;;;;3.13;2.83;;;;;;;28.38;41.41;97210.44;5133983;28;20027;-29
2022/06/18 01:01:58;;;;;;;3.17;2.88;;;;;;;28.21;41.72;97216.22;5133821;28;20060;-27
2022/06/18 01:04:30;;;;;;;4.53;2.67;;;;;;;28.27;41.52;97216.16;5135078;27;20034;-29
2022/06/18 01:07:26;;;;;;;3.25;3.03;;;;;;;28.27;41.54;97216.91;5137505;27;20019;-28
2022/06/18 01:09:53;;;;;;;4.55;3.17;;;;;;;28.33;41.47;97216.81;5137569;27;20026;-27
2022/06/18 01:12:20;;;;;;;4.43;3.10;;;;;;;28.24;41.84;97212.38;5137227;27;20043;-29
2022/06/18 01:14:51;;;;;;;3.58;3.08;;;;;;;28.23;41.64;97208.09;5137229;27;20027;-27
2022/06/18 01:17:18;;;;;;;4.30;3.30;;;;;;;28.22;41.86;97215.69;5137363;27;20471;-27
2022/06/18 01:19:48;;;;;;;4.05;3.65;;;;;;;28.20;41.98;97218.25;5136932;27;20033;-27
2022/06/18 01:22:23;;;;;;;3.45;3.00;;;;;;;28.31;41.80;97205.47;5137064;27;20047;-28
2022/06/18 01:24:48;;;;;;;3.78;3.10;;;;;;;28.31;41.58;97205.47;5136997;27;20042;-27
2022/06/18 01:27:15;;;;;;;4.82;3.00;;;;;;;28.22;42.07;97218.47;5136927;27;20027;-27
2022/06/18 01:29:40;;;;;;;3.90;3.58;;;;;;;28.30;42.04;97220.69;5136958;27;20447;-27
2022/06/18 01:32:10;;;;;;;5.95;3.40;;;;;;;28.22;41.91;97221.28;5136916;27;20076;-27
2022/06/18 01:34:36;;;;;;;3.97;3.25;;;;;;;28.28;41.92;97218.44;5136786;27;20102;-27
2022/06/18 01:37:03;;;;;;;5.00;3.25;;;;;;;28.25;41.56;97222.25;5137112;27;20425;-29
2022/06/18 01:39:35;;;;;;;4.15;3.75;;;;;;;28.31;41.40;97202.69;5136636;27;20065;-28
2022/06/18 01:42:08;;;;;;;4.38;3.20;;;;;;;28.26;41.61;97211.84;5118436;27;20062;-27
2022/06/18 01:44:42;;;;;;;;;;;;;;;28.20;41.72;97209.88;5136986;27;20088;-27
2022/06/18 01:47:17;;;;;;;5.78;3.67;;;;;;;28.26;41.25;97209.81;5136672;27;19949;-27
2022/06/18 01:50:13;;;;;;;5.03;3.25;;;;;;;28.34;41.24;97204.38;5136643;27;20434;-27
2022/06/18 01:52:47;;;;;;;3.55;3.25;;;;;;;28.33;40.94;97202.88;5134600;27;20437;-27
2022/06/18 01:55:37;;;;;;;4.18;3.40;;;;;;;28.22;41.04;97204.53;5136574;27;20022;-27
2022/06/18 01:58:13;;;;;;;3.88;3.10;;;;;;;28.19;41.07;97200.00;5117916;27;20015;-26
2022/06/18 02:00:40;;;;;;;3.83;3.28;;;;;;;28.16;40.89;97201.06;5136263;27;20049;-27
2022/06/18 02:03:06;;;;;;;3.33;3.10;;;;;;;28.23;41.07;97205.28;5136446;27;20022;-27
2022/06/18 02:05:34;;;;;;;4.47;3.40;;;;;;;28.12;41.00;97205.41;5136205;27;20058;-27
2022/06/18 02:08:00;;;;;;;5.55;3.55;;;;;;;28.21;40.71;97205.06;5136096;27;20371;-27
2022/06/18 02:10:38;;;;;;;3.70;3.28;;;;;;;28.17;40.72;97207.38;5136352;27;20044;-27
2022/06/18 02:13:05;;;;;;;3.20;2.83;;;;;;;28.17;40.41;97202.56;5117399;27;20035;-27
2022/06/18 02:15:35;;;;;;;4.60;3.55;;;;;;;28.21;40.46;97202.28;5135000;27;20027;-27
2022/06/18 02:18:08;;;;;;;3.55;3.03;;;;;;;28.14;40.64;97203.59;5136101;27;20102;-27
2022/06/18 02:20:48;;;;;;;4.57;3.17;;;;;;;28.22;40.41;97192.63;5135728;27;20176;-27
2022/06/18 02:23:16;;;;;;;4.68;3.80;;;;;;;28.22;40.31;97187.81;5135823;27;20378;-29
2022/06/18 02:25:41;;;;;;;3.17;2.92;;;;;;;28.25;40.15;97186.00;5135761;27;20087;-27
2022/06/18 02:28:36;;;;;;;3.72;3.17;;;;;;;28.21;40.11;97191.88;5135844;27;20409;-28
2022/06/18 02:31:03;;;;;;;4.47;3.30;;;;;;;28.17;40.35;97191.41;5135724;27;20026;-27
2022/06/18 02:33:38;;;;;;;4.60;3.58;;;;;;;28.22;39.46;97187.03;5135925;27;20023;-27
2022/06/18 02:36:13;;;;;;;4.13;3.33;;;;;;;28.23;39.74;97189.31;5135759;27;20098;-27
2022/06/18 02:38:38;;;;;;;5.15;3.13;;;;;;;28.26;39.65;97186.75;5135734;27;20030;-27
2022/06/18 02:41:04;;;;;;;3.03;2.75;;;;;;;28.18;39.40;97187.38;5135527;27;20023;-27
2022/06/18 02:43:29;;;;;;;3.75;3.17;;;;;;;28.17;39.48;97185.06;5135508;27;20027;-27
2022/06/18 02:45:56;;;;;;;4.18;3.75;;;;;;;28.22;39.39;97187.81;5135448;27;20075;-27
2022/06/18 02:48:26;;;;;;;3.17;2.80;;;;;;;28.16;39.13;97186.34;5135447;27;20026;-27
2022/06/18 02:50:53;;;;;;;5.65;3.22;;;;;;;28.18;39.28;97186.63;5135108;27;20026;-27
2022/06/18 02:53:19;;;;;;;3.50;3.20;;;;;;;28.09;39.26;97192.50;5135202;27;20027;-27
2022/06/18 02:55:53;;;;;;;3.55;3.05;;;;;;;28.19;39.47;97196.47;5135206;27;20019;-27
2022/06/18 02:58:49;;;;;;;5.38;3.38;;;;;;;28.10;38.71;97191.97;5135292;27;20027;-27
2022/06/18 03:01:26;;;;;;;4.88;3.20;;;;;;;28.09;39.08;97196.06;5122332;27;20028;-27
2022/06/18 03:03:57;;;;;;;3.25;2.95;;;;;;;28.15;38.55;97196.00;5135052;27;20034;-27
2022/06/18 03:06:27;;;;;;;4.10;3.20;;;;;;;28.10;38.79;97191.97;5135437;27;20047;-27
2022/06/18 03:08:53;;;;;;;3.25;3.00;;;;;;;28.04;38.88;97194.09;5135299;27;20107;-27
2022/06/18 03:14:05;;;;;;;2.97;2.70;;;;;;;28.09;38.68;97196.06;5134784;27;20103;-27
2022/06/18 03:16:32;;;;;;;4.18;3.00;;;;;;;28.07;38.69;97195.81;5134787;27;20118;-27
2022/06/18 03:18:59;;;;;;;4.50;3.30;;;;;;;28.09;38.46;97196.06;5135068;27;20031;-27
2022/06/18 03:21:30;;;;;;;3.13;2.85;;;;;;;28.08;38.35;97207.72;5134892;27;20019;-27
2022/06/18 03:23:56;;;;;;;4.43;3.20;;;;;;;28.03;38.62;97198.16;5134776;27;20049;-27
2022/06/18 03:26:22;;;;;;;3.22;2.92;;;;;;;28.03;38.06;97198.16;5134393;27;20472;-27
2022/06/18 03:28:53;;;;;;;5.90;3.17;;;;;;;28.06;38.45;97202.69;5134612;27;20031;-27
2022/06/18 03:31:20;;;;;;;3.40;2.90;;;;;;;28.04;37.89;97202.47;5134671;27;20139;-27
2022/06/18 03:33:49;;;;;;;4.35;3.50;;;;;;;28.02;38.29;97196.66;5134655;27;20443;-27
2022/06/18 03:36:19;;;;;;;4.93;2.83;;;;;;;28.03;38.45;97203.75;5134385;27;20019;-29
2022/06/18 03:38:45;;;;;;;3.47;2.75;;;;;;;28.00;38.13;97206.81;5134686;27;20391;-27
2022/06/18 03:41:12;;;;;;;3.22;2.92;;;;;;;27.98;38.21;97209.38;5134410;27;20376;-27
2022/06/18 03:43:38;;;;;;;3.55;2.83;;;;;;;27.98;37.62;97212.16;5134413;27;20022;-27
2022/06/18 03:46:08;;;;;;;3.78;3.13;;;;;;;27.98;37.60;97218.50;5134404;27;20083;-27
2022/06/18 03:48:58;;;;;;;3.80;2.80;;;;;;;28.00;37.37;97218.72;5134331;27;20098;-28
2022/06/18 03:51:24;;;;;;;3.30;3.00;;;;;;;27.96;38.05;97209.91;5134415;27;20436;-29
2022/06/18 03:53:51;;;;;;;3.20;2.90;;;;;;;27.94;37.35;97215.25;5134383;28;20513;-27
2022/06/18 03:56:20;;;;;;;3.75;3.17;;;;;;;27.94;37.45;97211.72;5134420;28;20034;-28
2022/06/18 03:58:46;;;;;;;4.22;2.80;;;;;;;27.96;37.06;97214.72;5134420;28;20345;-27
2022/06/18 04:01:15;;;;;;;3.15;2.83;;;;;;;27.95;37.63;97213.97;5134295;28;20114;-27
2022/06/18 04:03:41;;;;;;;4.07;2.83;;;;;;;27.99;37.39;97214.44;5134233;28;20020;-27
2022/06/18 04:06:09;;;;;;;3.78;2.47;;;;;;;27.94;36.82;97218.06;5134250;28;20031;-27
2022/06/18 04:08:35;;;;;;;3.10;2.80;;;;;;;27.89;36.90;97218.84;5134466;28;20023;-27
2022/06/18 04:11:00;;;;;;;2.80;2.60;;;;;;;27.91;37.16;97221.88;5134278;28;20080;-27
2022/06/18 04:13:28;;;;;;;4.30;2.65;;;;;;;27.87;37.36;97224.94;5112365;28;20047;-27
2022/06/18 04:15:54;;;;;;;2.97;2.40;;;;;;;27.92;36.59;97228.22;5113833;28;20480;-27
2022/06/18 04:18:20;;;;;;;4.18;2.72;;;;;;;27.91;37.20;97227.47;5113619;28;20047;-27
2022/06/18 04:20:45;;;;;;;4.15;2.80;;;;;;;27.94;37.17;97234.03;5113532;28;20069;-27
2022/06/18 04:23:14;;;;;;;3.35;2.70;;;;;;;27.86;36.53;97233.84;5113369;28;20127;-28
2022/06/18 04:25:40;;;;;;;3.85;2.53;;;;;;;27.86;36.67;97239.41;5113622;28;20077;-27
2022/06/18 04:28:05;;;;;;;3.60;2.70;;;;;;;27.85;36.48;97235.13;5113363;28;20023;-27
2022/06/18 04:30:33;;;;;;;4.15;2.53;;;;;;;27.83;36.53;97240.44;5113612;28;20114;-27
2022/06/18 04:32:59;;;;;;;4.30;2.70;;;;;;;27.85;36.68;97246.25;5113450;28;20015;-27
2022/06/18 04:35:25;;;;;;;3.88;2.80;;;;;;;27.82;36.46;97239.69;5113659;28;20023;-27
2022/06/18 04:37:50;;;;;;;2.72;2.50;;;;;;;27.84;36.30;97239.94;5113487;28;20019;-27
2022/06/18 04:40:28;;;;;;;3.08;2.78;;;;;;;27.82;36.55;97236.91;5116623;28;20043;-27
2022/06/18 04:42:53;;;;;;;3.08;2.75;;;;;;;27.83;36.47;97240.44;5115142;28;20031;-27
2022/06/18 04:45:19;;;;;;;5.47;2.60;;;;;;;27.79;36.43;97240.00;5116312;28;20019;-27
2022/06/18 04:47:44;;;;;;;4.05;2.38;;;;;;;27.79;36.62;97240.00;5117149;28;20023;-27
2022/06/18 04:50:19;;;;;;;3.20;2.40;;;;;;;27.81;36.70;97243.78;5117301;28;20024;-27
2022/06/18 04:52:44;;;;;;;4.13;2.70;;;;;;;27.79;36.67;97246.34;5117027;28;20023;-27
2022/06/18 04:55:11;;;;;;;3.15;2.58;;;;;;;27.81;36.70;97249.38;5115568;28;20097;-27
2022/06/18 04:57:37;;;;;;;2.50;2.28;;;;;;;27.81;35.87;97254.94;5103288;28;20102;-27
2022/06/18 05:00:07;;;;;;;3.10;2.60;;;;;;;27.81;36.16;97254.19;5114993;28;20641;-27
2022/06/18 05:02:33;;;;;;;2.50;2.30;;;;;;;27.80;35.59;97253.41;5102225;28;20480;-27
2022/06/18 05:04:59;;;;;;;2.75;2.33;;;;;;;27.80;35.90;97247.84;5094385;28;20059;-27
2022/06/18 05:07:25;;;;;;;3.13;2.83;;;;;;;27.78;36.11;97249.63;5094273;28;20051;-29
2022/06/18 05:09:50;;;;;;;2.75;2.28;;;;;;;27.78;36.08;97255.97;5094374;28;20062;-27
2022/06/18 05:12:16;;;;;;;2.42;2.22;;;;;;;27.78;36.28;97261.53;5094561;28;20783;-28
2022/06/18 05:14:43;;;;;;;3.00;2.22;;;;;;;27.77;35.13;97267.63;5125372;27;20046;-27
2022/06/18 05:17:14;;;;;;;2.50;2.30;;;;;;;27.71;35.41;97267.69;5135360;27;20087;-27
2022/06/18 05:19:40;;;;;;;4.40;2.30;;;;;;;27.71;35.58;97269.72;5135016;27;20031;-28
2022/06/18 05:22:06;;;;;;;2.50;2.30;;;;;;;27.74;35.58;97266.66;5133151;27;20019;-27
2022/06/18 05:24:31;;;;;;;2.40;2.20;;;;;;;27.70;35.34;97266.16;5135012;27;20091;-27
2022/06/18 05:26:59;;;;;;;2.97;2.28;;;;;;;27.74;35.09;97265.88;5135054;27;20035;-27
2022/06/18 05:29:25;;;;;;;2.83;2.28;;;;;;;27.72;35.71;97274.00;5134911;27;20036;-27
2022/06/18 05:31:51;;;;;;;5.38;2.60;;;;;;;27.78;35.65;97271.94;5134629;27;20019;-27
2022/06/18 05:34:16;;;;;;;4.03;2.30;;;;;;;27.72;35.50;97271.22;5134824;27;20169;-27
2022/06/18 05:36:42;;;;;;;2.83;2.33;;;;;;;27.70;36.08;97268.19;5134907;27;20031;-27
2022/06/18 05:39:13;;;;;;;2.50;2.30;;;;;;;27.71;35.73;97264.13;5134949;27;20027;-27
2022/06/18 05:41:38;;;;;;;2.30;2.10;;;;;;;27.70;35.61;97271.75;5134646;27;20103;-27
2022/06/18 05:44:05;;;;;;;2.72;2.20;;;;;;;27.75;35.26;97275.75;5134441;27;20064;-27
2022/06/18 05:46:31;;;;;;;2.50;2.30;;;;;;;27.69;35.59;97275.06;5134604;27;20023;-28
2022/06/18 05:48:57;;;;;;;2.65;2.20;;;;;;;27.71;35.35;97278.06;5134682;27;20031;-29
2022/06/18 05:51:22;;;;;;;2.55;2.35;;;;;;;27.70;35.21;97279.34;5103070;28;20030;-28
2022/06/18 05:53:48;;;;;;;2.20;2.00;;;;;;;27.64;34.82;97285.00;5113932;28;20079;-27
2022/06/18 05:56:14;;;;;;;3.38;2.20;;;;;;;27.67;34.92;97289.53;5095310;28;20116;-27
2022/06/18 05:58:39;;;;;;;3.00;2.20;;;;;;;27.65;34.67;97282.97;5113818;28;20039;-27
2022/06/18 06:01:05;;;;;;;2.88;2.40;;;;;;;27.67;34.72;97286.75;5113638;28;20025;-27
2022/06/18 06:03:31;;;;;;;2.92;2.13;;;;;;;27.68;35.44;97290.28;5113768;28;20144;-28
2022/06/18 06:05:57;;;;;;;2.20;2.00;;;;;;;27.62;35.25;97284.75;5113843;28;20062;-27
2022/06/18 06:08:23;;;;;;;2.30;2.10;;;;;;;27.66;34.83;97290.03;5113537;28;20456;-27
2022/06/18 06:13:33;;;;;;;2.58;1.90;;;;;;;27.65;34.45;97297.66;5113554;28;20061;-27
2022/06/18 06:15:58;;;;;;;2.20;2.00;;;;;;;27.65;34.75;97291.31;5113672;28;20019;-27
2022/06/18 06:18:24;;;;;;;2.45;2.25;;;;;;;27.57;34.92;97295.97;5113410;28;20110;-27
2022/06/18 06:20:53;;;;;;;2.22;1.98;;;;;;;27.63;35.03;97296.66;5094805;28;20376;-27
2022/06/18 06:23:19;;;;;;;2.40;2.20;;;;;;;27.59;34.68;97293.38;5111055;28;20057;-28
2022/06/18 06:25:46;;;;;;;4.05;2.08;;;;;;;27.64;34.66;97303.75;5113276;28;20429;-27
2022/06/18 06:28:20;;;;;;;2.03;1.83;;;;;;;27.53;33.87;97299.00;5113312;28;20035;-28
2022/06/18 06:30:46;;;;;;;2.83;1.80;;;;;;;27.60;34.97;97303.25;5113313;28;20031;-27
2022/06/18 06:33:12;;;;;;;2.25;1.90;;;;;;;27.61;34.70;97301.97;5112947;28;20032;-27
2022/06/18 06:35:38;;;;;;;3.20;2.15;;;;;;;27.62;34.89;97303.50;5113196;28;20040;-27
2022/06/18 06:38:04;;;;;;;6.40;2.60;;;;;;;27.58;34.16;97303.00;5113264;28;20025;-27
2022/06/18 06:40:32;;;;;;;6.10;2.75;;;;;;;27.60;34.16;97312.38;5113013;28;20027;-27
2022/06/18 06:42:58;;;;;;;5.20;2.40;;;;;;;27.53;35.89;97313.69;5094551;28;20112;-27
2022/06/18 06:45:30;;;;;;;8.20;3.00;;;;;;;27.46;34.04;97308.66;5112811;28;20487;-27
2022/06/18 06:47:56;;;;;;;12.87;2.90;;;;;;;27.60;33.67;97319.97;5112752;28;20027;-27
2022/06/18 06:50:23;;;;;;;11.20;3.10;;;;;;;27.45;33.97;97311.94;5116761;27;20918;-28
2022/06/18 06:52:49;;;;;;;6.35;2.38;;;;;;;27.57;33.67;97318.25;5133490;27;20464;-27
2022/06/18 06:58:11;;;;;;;7.97;2.65;;;;;;;27.38;34.13;97321.63;5133558;27;20038;-28
2022/06/18 07:00:40;;;;;;;8.02;3.10;;;;;;;27.52;33.90;97316.97;5133259;27;20027;-28
2022/06/18 07:03:06;;;;;;;9.85;3.03;;;;;;;27.62;34.53;97317.44;5132433;27;20027;-27
2022/06/18 07:05:31;;;;;;;5.68;2.53;;;;;;;27.64;33.77;97317.66;5133084;27;20592;-27
2022/06/18 07:07:57;;;;;;;4.97;2.15;;;;;;;27.61;33.89;97313.88;5132521;27;20027;-28
2022/06/18 07:10:24;;;;;;;4.70;2.42;;;;;;;27.37;33.94;97319.38;5133048;27;20152;-27
2022/06/18 07:12:49;;;;;;;6.75;2.65;;;;;;;27.39;33.42;97314.81;5128472;27;20028;-27
2022/06/18 07:15:17;;;;;;;6.85;2.13;;;;;;;27.61;33.50;97321.50;5112366;28;20031;-29
2022/06/18 07:17:42;;;;;;;5.32;2.45;;;;;;;27.59;34.06;97315.69;5112554;28;20019;-27
2022/06/18 07:20:14;;;;;;;8.05;3.25;;;;;;;27.64;34.61;97306.53;5112112;28;20038;-27
2022/06/18 07:22:40;;;;;;;4.90;2.50;;;;;;;27.56;33.47;97306.34;5110125;27;20103;-27
2022/06/18 07:25:07;;;;;;;2.90;2.13;;;;;;;27.31;30.66;97315.88;5112041;28;20180;-27
2022/06/18 07:27:35;;;;;;;5.75;2.80;;;;;;;27.19;33.87;97318.00;5112118;28;20467;-27
2022/06/18 07:30:01;;;;;;;4.43;1.90;;;;;;;27.29;32.91;97305.25;5110624;28;20028;-28
2022/06/18 07:32:26;;;;;;;4.57;2.40;;;;;;;27.45;33.37;97304.34;5110596;28;20027;-27
2022/06/18 07:34:55;;;;;;;6.45;2.20;;;;;;;27.40;32.42;97298.84;5112002;28;20104;-27
2022/06/18 07:37:21;;;;;;;3.00;2.10;;;;;;;27.56;33.28;97294.44;5112145;28;20468;-27
2022/06/18 07:39:47;;;;;;;3.10;2.10;;;;;;;27.62;33.71;97297.91;5111947;28;20109;-27
2022/06/18 07:42:15;;;;;;;3.42;1.95;;;;;;;27.57;33.41;97291.13;5111961;28;20471;-28
2022/06/18 07:44:40;;;;;;;3.25;2.17;;;;;;;27.63;34.04;97294.63;5111769;28;20060;-27
2022/06/18 07:47:06;;;;;;;2.88;2.00;;;;;;;27.58;32.60;97289.09;5111903;28;20023;-28
2022/06/18 07:49:32;;;;;;;2.40;2.20;;;;;;;27.58;32.52;97283.50;5110454;28;20134;-27
2022/06/18 07:51:58;;;;;;;2.25;2.05;;;;;;;27.45;32.13;97279.28;5094571;28;20027;-27
2022/06/18 07:54:23;;;;;;;6.00;2.40;;;;;;;27.50;33.26;97277.72;5091570;28;20028;-28
2022/06/18 07:56:49;;;;;;;2.67;2.10;;;;;;;27.64;33.12;97285.00;5091262;28;20027;-27
2022/06/18 07:59:20;;;;;;;3.58;2.10;;;;;;;27.43;33.05;97281.09;5091661;28;20069;-27
2022/06/18 08:01:47;;;;;;;3.25;2.00;;;;;;;27.10;31.60;97279.31;5090103;28;20114;-27
2022/06/18 08:04:12;;;;;;;3.75;2.30;;;;;;;27.23;31.89;97268.31;5091527;28;20048;-27
2022/06/18 08:06:38;;;;;;;2.85;1.92;;;;;;;27.06;31.74;97270.50;5091420;28;20024;-27
2022/06/18 08:09:03;;;;;;;3.45;2.13;;;;;;;27.08;31.67;97256.78;5089749;28;20027;-27
2022/06/18 08:11:29;;;;;;;2.65;2.15;;;;;;;27.38;31.91;97257.56;5090105;28;20376;-28
2022/06/18 08:13:56;;;;;;;6.32;2.33;;;;;;;27.10;31.01;97260.56;5107217;28;20119;-28
2022/06/18 08:16:22;;;;;;;3.30;2.20;;;;;;;26.98;31.61;97258.38;5115933;28;20030;-28
2022/06/18 08:18:48;;;;;;;2.85;2.20;;;;;;;26.98;31.06;97252.81;5115728;28;20024;-29
2022/06/18 08:21:33;;;;;;;5.45;2.10;;;;;;;27.18;31.39;97244.09;5115461;28;20038;-27
2022/06/18 08:24:09;;;;;;;3.10;1.80;;;;;;;27.35;31.98;97253.03;5115780;28;20047;-27
2022/06/18 08:26:36;;;;;;;3.45;2.40;;;;;;;27.14;31.36;97249.16;5115525;28;20031;-28
2022/06/18 08:29:06;;;;;;;4.80;2.10;;;;;;;27.52;32.83;97256.44;5115523;28;20531;-27
2022/06/18 08:31:32;;;;;;;2.10;1.90;;;;;;;27.59;32.08;97257.16;5115178;28;20027;-27
2022/06/18 08:33:57;;;;;;;3.28;2.10;;;;;;;27.60;31.79;97258.69;5115476;28;20027;-28
2022/06/18 08:36:24;;;;;;;2.20;2.00;;;;;;;27.57;32.37;97254.16;5115551;28;20153;-27
2022/06/18 08:38:50;;;;;;;6.53;2.33;;;;;;;27.59;32.38;97248.81;5115283;28;20465;-27
2022/06/18 08:41:25;;;;;;;8.88;2.33;;;;;;;27.70;32.45;97246.66;5115219;28;20027;-27
2022/06/18 08:44:39;;;;;;;2.80;2.10;;;;;;;27.71;32.67;97245.38;5115084;28;20019;-27
2022/06/18 08:47:07;;;;;;;3.58;2.15;;;;;;;27.69;32.32;97247.22;5115327;28;20115;-28
2022/06/18 08:50:04;;;;;;;4.63;2.05;;;;;;;27.60;32.27;97236.38;5115111;28;20489;-27
2022/06/18 08:52:54;;;;;;;2.60;2.33;;;;;;;27.60;33.34;97231.56;5115220;28;20425;-28
2022/06/18 08:55:48;;;;;;;4.00;2.60;;;;;;;27.64;32.91;97222.94;5117576;27;20417;-28
2022/06/18 08:58:32;;;;;;;3.38;2.42;;;;;;;27.68;32.84;97231.75;5137422;27;20023;-27
2022/06/18 09:01:19;;;;;;;5.25;2.72;;;;;;;27.62;31.93;97231.03;5137318;27;20027;-27
2022/06/18 09:04:01;;;;;;;3.85;2.45;;;;;;;27.64;33.23;97239.66;5117065;28;20051;-27
2022/06/18 09:06:49;;;;;;;3.50;2.33;;;;;;;27.58;33.20;97230.56;5117798;27;20101;-27
2022/06/18 09:09:36;;;;;;;3.80;2.45;;;;;;;27.52;32.43;97236.19;5137587;27;20027;-27
2022/06/18 09:12:15;;;;;;;3.17;2.33;;;;;;;27.72;32.81;97235.75;5137555;27;20095;-29
2022/06/18 09:14:54;;;;;;;3.38;2.30;;;;;;;27.24;32.27;97230.09;5133713;27;20126;-28
2022/06/18 09:17:42;;;;;;;2.63;2.13;;;;;;;27.34;31.46;97239.63;5118891;27;20118;-29
2022/06/18 09:20:08;;;;;;;7.93;2.55;;;;;;;27.46;32.83;97241.78;5137429;27;20031;-28
2022/06/18 09:22:39;;;;;;;5.43;2.38;;;;;;;27.62;32.34;97231.03;5136792;27;20395;-28
2022/06/18 09:25:31;;;;;;;6.00;2.40;;;;;;;27.55;32.53;97232.38;5136364;27;20031;-28
2022/06/18 09:28:05;;;;;;;3.78;2.38;;;;;;;27.64;32.32;97222.94;5137155;27;20062;-27
2022/06/18 09:30:41;;;;;;;3.80;2.17;;;;;;;27.54;32.47;97231.59;5136364;27;20019;-27
2022/06/18 09:33:24;;;;;;;5.65;2.47;;;;;;;27.59;32.63;97220.94;5137138;27;20015;-28
2022/06/18 09:35:56;;;;;;;4.93;2.30;;;;;;;27.46;33.11;97219.50;5136764;27;20034;-28
2022/06/18 09:38:30;;;;;;;3.38;2.05;;;;;;;27.52;32.86;97220.22;5136828;27;20065;-28
2022/06/18 09:40:58;;;;;;;3.67;2.13;;;;;;;27.58;32.87;97219.44;5136938;27;20487;-29
2022/06/18 09:43:56;;;;;;;3.55;2.40;;;;;;;27.53;32.12;97209.84;5136664;27;20020;-27
2022/06/18 09:46:30;;;;;;;2.90;2.42;;;;;;;27.51;32.63;97218.72;5136638;27;20030;-28
2022/06/18 09:48:55;;;;;;;3.85;2.30;;;;;;;27.52;33.00;97222.25;5136618;27;20038;-28
2022/06/18 09:51:51;;;;;;;5.03;2.33;;;;;;;27.56;32.96;97216.44;5136623;27;20015;-28
2022/06/18 09:54:18;;;;;;;2.35;2.15;;;;;;;27.54;32.91;97220.47;5136700;27;20027;-27
2022/06/18 09:56:48;;;;;;;2.15;1.90;;;;;;;27.61;32.61;97218.38;5136236;27;20372;-28
2022/06/18 09:59:22;;;;;;;2.90;2.70;;;;;;;27.56;32.87;97210.84;5136683;27;20132;-29
2022/06/18 10:01:52;;;;;;;5.53;2.45;;;;;;;27.52;33.07;97214.66;5136281;27;20066;-28
2022/06/18 10:07:18;;;;;;;3.70;2.38;;;;;;;27.55;32.56;97212.84;5136420;27;20033;-27
2022/06/18 10:09:50;;;;;;;3.15;2.00;;;;;;;27.62;32.68;97211.53;5117580;27;20358;-28
2022/06/18 10:12:34;;;;;;;3.33;2.50;;;;;;;27.64;32.91;97206.97;5135847;27;20055;-29
2022/06/18 10:15:04;;;;;;;2.90;2.60;;;;;;;27.69;32.56;97202.63;5135803;27;20275;-28
2022/06/18 10:18:14;;;;;;;4.47;2.33;;;;;;;27.54;32.83;97209.31;5136132;27;20122;-28
2022/06/18 10:20:45;;;;;;;3.47;2.25;;;;;;;27.54;33.24;97211.34;5117978;27;20039;-28
2022/06/18 10:23:20;;;;;;;2.63;2.42;;;;;;;27.57;33.04;97218.66;5135938;27;20019;-27
2022/06/18 10:26:02;;;;;;;2.40;2.20;;;;;;;27.68;32.92;97212.25;5135832;27;20027;-29
2022/06/18 10:28:46;;;;;;;2.85;2.65;;;;;;;27.53;32.84;97207.06;5136340;27;20019;-27
2022/06/18 10:31:21;;;;;;;5.00;2.78;;;;;;;28.91;30.70;97203.88;5117266;27;20034;-26
2022/06/18 10:33:57;;;;;;;2.85;2.55;;;;;;;29.43;29.61;97205.28;5135520;27;20379;-26
2022/06/18 10:36:38;;;;;;;4.80;2.53;;;;;;;29.76;29.95;97203.19;5132265;27;20020;-26
2022/06/18 10:39:23;;;;;;;4.20;2.50;;;;;;;29.85;29.74;97200.72;5133793;27;20160;-27
2022/06/18 10:42:25;;;;;;;3.22;2.80;;;;;;;29.87;29.92;97197.38;5133481;27;20399;-27
2022/06/18 10:45:08;;;;;;;5.47;2.58;;;;;;;29.89;29.76;97198.38;5133377;27;20027;-28
2022/06/18 10:47:38;;;;;;;5.28;2.38;;;;;;;30.00;29.94;97200.97;5133282;27;20102;-26
2022/06/18 10:50:11;;;;;;;4.93;2.50;;;;;;;29.99;30.30;97198.69;5133265;27;20054;-26
2022/06/18 10:52:37;;;;;;;4.18;2.65;;;;;;;29.96;30.26;97200.53;5133355;27;20023;-27
2022/06/18 10:55:23;;;;;;;5.50;2.97;;;;;;;29.91;30.25;97190.19;5133011;27;20035;-26
2022/06/18 10:58:08;;;;;;;4.72;2.42;;;;;;;29.97;29.76;97188.03;5129856;27;20375;-26
2022/06/18 11:00:34;;;;;;;2.75;2.55;;;;;;;29.87;30.81;97192.53;5129599;27;20042;-26
2022/06/18 11:03:02;;;;;;;6.45;2.80;;;;;;;29.87;30.36;97198.13;5127872;27;20027;-26
2022/06/18 11:05:37;;;;;;;5.35;2.70;;;;;;;29.92;30.45;97188.88;5129800;27;20044;-26
2022/06/18 11:08:23;;;;;;;3.25;2.40;;;;;;;30.04;30.27;97199.88;5129790;27;20055;-27
2022/06/18 11:11:03;;;;;;;3.25;2.55;;;;;;;29.89;29.88;97200.41;5129672;27;20096;-25
2022/06/18 11:13:36;;;;;;;4.50;2.60;;;;;;;29.86;28.41;97201.47;5129246;27;20019;-26
2022/06/18 11:16:18;;;;;;;3.08;2.50;;;;;;;29.95;30.16;97195.44;5128993;27;20031;-27
2022/06/18 11:18:52;;;;;;;3.13;2.78;;;;;;;29.92;30.30;97199.34;5129453;27;20023;-26
2022/06/18 11:21:36;;;;;;;4.30;2.70;;;;;;;29.85;30.36;97191.56;5129151;27;20035;-26
2022/06/18 11:24:10;;;;;;;3.78;2.50;;;;;;;29.94;29.61;97191.13;5129292;27;20019;-27
2022/06/18 11:26:58;;;;;;;3.60;2.35;;;;;;;29.81;30.99;97179.94;5129258;27;20019;-26
2022/06/18 11:29:41;;;;;;;5.75;2.70;;;;;;;29.86;30.49;97179.84;5127715;28;20035;-26
2022/06/18 11:32:16;;;;;;;4.15;2.20;;;;;;;29.92;30.40;97177.69;5129333;27;20027;-26
2022/06/18 11:34:52;;;;;;;2.80;2.47;;;;;;;29.86;28.78;97170.72;5127606;28;20035;-26
2022/06/18 11:37:27;;;;;;;3.15;2.45;;;;;;;29.84;29.95;97178.88;5128835;27;20512;-26
2022/06/18 11:40:03;;;;;;;6.82;2.72;;;;;;;29.89;29.75;97173.19;5127727;28;20449;-26
2022/06/18 11:43:00;;;;;;;3.33;2.33;;;;;;;29.79;29.69;97179.75;5129100;27;20019;-28
2022/06/18 11:45:44;;;;;;;4.00;2.60;;;;;;;29.81;30.07;97166.72;5125606;28;20031;-26
2022/06/18 11:48:37;;;;;;;2.35;2.15;;;;;;;29.76;28.44;97170.41;5128620;27;20049;-27
2022/06/18 11:51:26;;;;;;;2.53;2.30;;;;;;;29.81;29.68;97155.53;5128939;27;20034;-26
2022/06/18 11:54:20;;;;;;;6.53;2.72;;;;;;;29.84;29.96;97162.09;5129099;27;20399;-26
2022/06/18 11:57:11;;;;;;;3.75;2.40;;;;;;;29.78;29.90;97155.88;5128428;28;20040;-26
2022/06/18 11:59:46;;;;;;;3.92;2.55;;;;;;;29.74;30.49;97149.84;5128345;28;20031;-26
2022/06/18 12:02:45;;;;;;;4.72;2.53;;;;;;;29.70;30.87;97160.59;5108681;28;20506;-27
2022/06/18 12:05:23;;;;;;;2.50;2.22;;;;;;;29.74;30.27;97153.41;5128692;27;20493;-27
2022/06/18 12:07:58;;;;;;;3.30;2.20;;;;;;;29.67;30.99;97145.69;5123259;27;20023;-26